sensor_id;sensor_type;location;lat;lon;timestamp;temperature;humidity
43995;DHT22;51687;52.160;5.298;2023-09-19T02:23:33;20.60;64.20
43995;DHT22;51687;52.160;5.298;2023-09-19T03:50:08;20.00;63.80
43995;DHT22;51687;52.160;5.298;2023-09-19T03:52:37;19.20;63.60
43995;DHT22;51687;52.160;5.298;2023-09-19T03:55:04;19.20;63.40
43995;DHT22;51687;52.160;5.298;2023-09-19T03:57:31;19.10;63.50
43995;DHT22;51687;52.160;5.298;2023-09-19T03:59:58;19.20;63.20
43995;DHT22;51687;52.160;5.298;2023-09-19T04:02:25;19.20;63.70
43995;DHT22;51687;52.160;5.298;2023-09-19T04:04:52;19.20;63.20
43995;DHT22;51687;52.160;5.298;2023-09-19T04:07:19;19.20;62.90
43995;DHT22;51687;52.160;5.298;2023-09-19T04:09:49;19.20;62.60
43995;DHT22;51687;52.160;5.298;2023-09-19T04:12:16;19.20;62.80
43995;DHT22;51687;52.160;5.298;2023-09-19T04:14:45;19.20;62.30
43995;DHT22;51687;52.160;5.298;2023-09-19T04:17:13;19.10;61.80
43995;DHT22;51687;52.160;5.298;2023-09-19T04:19:40;19.10;61.80
43995;DHT22;51687;52.160;5.298;2023-09-19T04:22:08;19.00;62.50
43995;DHT22;51687;52.160;5.298;2023-09-19T04:24:35;19.00;62.10
43995;DHT22;51687;52.160;5.298;2023-09-19T04:41:52;19.00;62.10
43995;DHT22;51687;52.160;5.298;2023-09-19T04:44:19;18.80;61.70
43995;DHT22;51687;52.160;5.298;2023-09-19T04:46:46;18.80;62.00
43995;DHT22;51687;52.160;5.298;2023-09-19T04:49:13;18.80;61.90
43995;DHT22;51687;52.160;5.298;2023-09-19T04:51:40;18.70;61.90
43995;DHT22;51687;52.160;5.298;2023-09-19T04:54:06;18.70;62.10
43995;DHT22;51687;52.160;5.298;2023-09-19T04:56:34;18.70;62.20
43995;DHT22;51687;52.160;5.298;2023-09-19T04:59:00;18.70;62.30
43995;DHT22;51687;52.160;5.298;2023-09-19T05:01:27;18.70;62.70
43995;DHT22;51687;52.160;5.298;2023-09-19T05:03:54;18.70;62.40
43995;DHT22;51687;52.160;5.298;2023-09-19T05:06:21;18.80;62.20
43995;DHT22;51687;52.160;5.298;2023-09-19T05:08:49;18.80;62.20
43995;DHT22;51687;52.160;5.298;2023-09-19T05:11:19;18.80;62.40
43995;DHT22;51687;52.160;5.298;2023-09-19T05:13:51;18.80;62.80
43995;DHT22;51687;52.160;5.298;2023-09-19T05:16:19;18.80;62.60
43995;DHT22;51687;52.160;5.298;2023-09-19T05:18:46;18.80;62.40
43995;DHT22;51687;52.160;5.298;2023-09-19T05:21:13;18.80;62.30
43995;DHT22;51687;52.160;5.298;2023-09-19T05:23:40;18.80;61.90
43995;DHT22;51687;52.160;5.298;2023-09-19T05:26:08;18.80;63.30
43995;DHT22;51687;52.160;5.298;2023-09-19T05:28:36;19.00;63.90
43995;DHT22;51687;52.160;5.298;2023-09-19T05:33:32;19.20;61.90
43995;DHT22;51687;52.160;5.298;2023-09-19T05:35:59;19.30;62.20
43995;DHT22;51687;52.160;5.298;2023-09-19T05:38:27;19.30;62.30
43995;DHT22;51687;52.160;5.298;2023-09-19T05:40:54;19.40;61.80
43995;DHT22;51687;52.160;5.298;2023-09-19T05:43:21;19.50;61.80
43995;DHT22;51687;52.160;5.298;2023-09-19T05:45:51;19.60;61.20
43995;DHT22;51687;52.160;5.298;2023-09-19T05:48:19;19.60;60.90
43995;DHT22;51687;52.160;5.298;2023-09-19T05:50:47;19.60;59.90
43995;DHT22;51687;52.160;5.298;2023-09-19T05:53:15;19.50;60.40
43995;DHT22;51687;52.160;5.298;2023-09-19T05:55:42;19.60;61.10
43995;DHT22;51687;52.160;5.298;2023-09-19T05:58:10;19.60;61.70
43995;DHT22;51687;52.160;5.298;2023-09-19T06:00:37;19.70;60.60
43995;DHT22;51687;52.160;5.298;2023-09-19T06:03:06;19.70;60.90
43995;DHT22;51687;52.160;5.298;2023-09-19T06:05:33;19.70;60.60
43995;DHT22;51687;52.160;5.298;2023-09-19T06:08:00;19.80;60.60
43995;DHT22;51687;52.160;5.298;2023-09-19T06:10:27;19.70;60.70
43995;DHT22;51687;52.160;5.298;2023-09-19T06:12:54;19.80;60.90
43995;DHT22;51687;52.160;5.298;2023-09-19T06:15:21;19.70;60.50
43995;DHT22;51687;52.160;5.298;2023-09-19T06:17:52;19.70;60.10
43995;DHT22;51687;52.160;5.298;2023-09-19T06:20:23;19.60;60.90
43995;DHT22;51687;52.160;5.298;2023-09-19T06:22:53;19.60;61.10
43995;DHT22;51687;52.160;5.298;2023-09-19T06:25:20;19.60;61.10
43995;DHT22;51687;52.160;5.298;2023-09-19T06:27:51;19.60;61.70
43995;DHT22;51687;52.160;5.298;2023-09-19T06:30:23;19.60;61.30
43995;DHT22;51687;52.160;5.298;2023-09-19T06:32:59;19.60;61.30
43995;DHT22;51687;52.160;5.298;2023-09-19T06:35:28;19.60;61.40
43995;DHT22;51687;52.160;5.298;2023-09-19T06:37:56;19.40;61.70
43995;DHT22;51687;52.160;5.298;2023-09-19T06:40:25;19.30;62.10
43995;DHT22;51687;52.160;5.298;2023-09-19T06:42:52;19.10;62.60
43995;DHT22;51687;52.160;5.298;2023-09-19T06:45:20;18.90;63.20
43995;DHT22;51687;52.160;5.298;2023-09-19T06:47:50;18.80;63.70
43995;DHT22;51687;52.160;5.298;2023-09-19T06:52:46;18.70;65.40
43995;DHT22;51687;52.160;5.298;2023-09-19T06:55:17;18.50;65.00
43995;DHT22;51687;52.160;5.298;2023-09-19T06:57:46;18.40;66.00
43995;DHT22;51687;52.160;5.298;2023-09-19T07:00:14;18.30;66.30
43995;DHT22;51687;52.160;5.298;2023-09-19T07:05:10;18.20;66.60
43995;DHT22;51687;52.160;5.298;2023-09-19T07:07:37;18.10;67.50
43995;DHT22;51687;52.160;5.298;2023-09-19T07:10:04;18.10;67.90
43995;DHT22;51687;52.160;5.298;2023-09-19T07:12:37;18.00;68.10
43995;DHT22;51687;52.160;5.298;2023-09-19T07:15:05;18.00;68.30
43995;DHT22;51687;52.160;5.298;2023-09-19T07:17:32;18.00;68.40
43995;DHT22;51687;52.160;5.298;2023-09-19T07:20:00;18.00;68.80
43995;DHT22;51687;52.160;5.298;2023-09-19T07:22:27;17.90;69.10
43995;DHT22;51687;52.160;5.298;2023-09-19T07:24:54;17.90;68.80
43995;DHT22;51687;52.160;5.298;2023-09-19T07:27:21;17.90;69.00
43995;DHT22;51687;52.160;5.298;2023-09-19T07:29:48;17.90;69.10
43995;DHT22;51687;52.160;5.298;2023-09-19T07:32:18;17.90;69.20
43995;DHT22;51687;52.160;5.298;2023-09-19T07:34:45;18.00;69.00
43995;DHT22;51687;52.160;5.298;2023-09-19T07:37:12;18.10;69.20
43995;DHT22;51687;52.160;5.298;2023-09-19T07:39:42;18.10;69.10
43995;DHT22;51687;52.160;5.298;2023-09-19T07:42:10;18.20;68.90
43995;DHT22;51687;52.160;5.298;2023-09-19T07:44:38;18.30;68.80
43995;DHT22;51687;52.160;5.298;2023-09-19T07:47:05;18.30;68.80
43995;DHT22;51687;52.160;5.298;2023-09-19T07:49:31;18.40;68.80
43995;DHT22;51687;52.160;5.298;2023-09-19T07:51:58;18.40;68.40
43995;DHT22;51687;52.160;5.298;2023-09-19T07:54:25;18.40;68.30
43995;DHT22;51687;52.160;5.298;2023-09-19T07:56:56;18.50;68.30
43995;DHT22;51687;52.160;5.298;2023-09-19T07:59:24;18.50;67.70
43995;DHT22;51687;52.160;5.298;2023-09-19T08:01:51;18.50;67.80
43995;DHT22;51687;52.160;5.298;2023-09-19T08:04:18;18.50;68.00
43995;DHT22;51687;52.160;5.298;2023-09-19T08:06:46;18.50;68.10
43995;DHT22;51687;52.160;5.298;2023-09-19T08:09:12;18.50;68.10
43995;DHT22;51687;52.160;5.298;2023-09-19T08:11:47;18.50;68.30
43995;DHT22;51687;52.160;5.298;2023-09-19T08:14:14;18.50;68.60
43995;DHT22;51687;52.160;5.298;2023-09-19T08:16:41;18.50;68.20
43995;DHT22;51687;52.160;5.298;2023-09-19T08:19:10;18.50;68.00
43995;DHT22;51687;52.160;5.298;2023-09-19T08:21:37;18.50;68.40
43995;DHT22;51687;52.160;5.298;2023-09-19T08:24:04;18.50;68.60
43995;DHT22;51687;52.160;5.298;2023-09-19T10:25:52;18.50;68.60
43995;DHT22;51687;52.160;5.298;2023-09-19T10:28:34;19.50;65.40
43995;DHT22;51687;52.160;5.298;2023-09-19T10:31:02;19.50;64.50
43995;DHT22;51687;52.160;5.298;2023-09-19T10:33:36;19.50;64.20
43995;DHT22;51687;52.160;5.298;2023-09-19T10:36:05;19.50;64.40
43995;DHT22;51687;52.160;5.298;2023-09-19T10:38:33;19.50;64.00
43995;DHT22;51687;52.160;5.298;2023-09-19T10:41:02;19.50;64.40
43995;DHT22;51687;52.160;5.298;2023-09-19T10:43:30;19.50;65.00
43995;DHT22;51687;52.160;5.298;2023-09-19T10:46:07;19.50;65.40
43995;DHT22;51687;52.160;5.298;2023-09-19T10:48:38;19.60;63.70
43995;DHT22;51687;52.160;5.298;2023-09-19T10:51:10;19.60;63.30
43995;DHT22;51687;52.160;5.298;2023-09-19T10:53:48;19.60;64.10
43995;DHT22;51687;52.160;5.298;2023-09-19T10:56:21;19.60;63.30
43995;DHT22;51687;52.160;5.298;2023-09-19T10:58:51;19.60;64.20
43995;DHT22;51687;52.160;5.298;2023-09-19T11:01:18;19.70;64.50
43995;DHT22;51687;52.160;5.298;2023-09-19T11:03:45;19.70;64.70
43995;DHT22;51687;52.160;5.298;2023-09-19T11:06:14;19.70;63.70
43995;DHT22;51687;52.160;5.298;2023-09-19T11:11:52;19.80;64.10
43995;DHT22;51687;52.160;5.298;2023-09-19T13:59:08;19.90;64.50
43995;DHT22;51687;52.160;5.298;2023-09-19T14:01:35;20.40;64.40
43995;DHT22;51687;52.160;5.298;2023-09-19T14:04:02;20.40;64.30
43995;DHT22;51687;52.160;5.298;2023-09-19T14:06:29;20.50;64.40
43995;DHT22;51687;52.160;5.298;2023-09-19T14:08:56;20.50;64.10
43995;DHT22;51687;52.160;5.298;2023-09-19T14:11:23;20.50;63.60
43995;DHT22;51687;52.160;5.298;2023-09-19T14:13:49;20.50;63.20
43995;DHT22;51687;52.160;5.298;2023-09-19T14:16:16;20.50;63.10
43995;DHT22;51687;52.160;5.298;2023-09-19T14:18:45;20.50;62.90
43995;DHT22;51687;52.160;5.298;2023-09-19T14:21:13;20.50;63.10
43995;DHT22;51687;52.160;5.298;2023-09-19T14:23:41;20.50;63.30
43995;DHT22;51687;52.160;5.298;2023-09-19T14:26:10;20.60;62.60
43995;DHT22;51687;52.160;5.298;2023-09-19T14:28:36;20.60;62.90
43995;DHT22;51687;52.160;5.298;2023-09-19T14:31:09;20.50;62.50
43995;DHT22;51687;52.160;5.298;2023-09-19T14:33:37;20.50;62.00
43995;DHT22;51687;52.160;5.298;2023-09-19T14:36:06;20.50;62.10
43995;DHT22;51687;52.160;5.298;2023-09-19T14:38:36;20.40;62.40
43995;DHT22;51687;52.160;5.298;2023-09-19T14:41:05;20.50;62.50
43995;DHT22;51687;52.160;5.298;2023-09-19T14:43:33;20.50;62.70
43995;DHT22;51687;52.160;5.298;2023-09-19T14:46:03;20.50;62.40
43995;DHT22;51687;52.160;5.298;2023-09-19T14:48:31;20.50;62.10
43995;DHT22;51687;52.160;5.298;2023-09-19T14:51:05;20.40;62.50
43995;DHT22;51687;52.160;5.298;2023-09-19T14:53:33;20.40;62.80
43995;DHT22;51687;52.160;5.298;2023-09-19T14:56:05;20.40;63.20
43995;DHT22;51687;52.160;5.298;2023-09-19T14:58:32;20.40;63.30
43995;DHT22;51687;52.160;5.298;2023-09-19T15:01:06;20.40;63.10
43995;DHT22;51687;52.160;5.298;2023-09-19T15:03:34;20.40;63.50
43995;DHT22;51687;52.160;5.298;2023-09-19T15:06:08;20.30;63.50
43995;DHT22;51687;52.160;5.298;2023-09-19T15:08:36;20.40;63.60
43995;DHT22;51687;52.160;5.298;2023-09-19T15:11:05;20.30;63.80
43995;DHT22;51687;52.160;5.298;2023-09-19T15:13:34;20.30;63.70
43995;DHT22;51687;52.160;5.298;2023-09-19T15:16:02;20.30;63.60
43995;DHT22;51687;52.160;5.298;2023-09-19T15:18:29;20.30;63.60
43995;DHT22;51687;52.160;5.298;2023-09-19T15:21:00;20.30;64.00
43995;DHT22;51687;52.160;5.298;2023-09-19T15:23:32;20.30;64.30
43995;DHT22;51687;52.160;5.298;2023-09-19T15:26:01;20.30;65.10
43995;DHT22;51687;52.160;5.298;2023-09-19T15:28:28;20.30;64.20
43995;DHT22;51687;52.160;5.298;2023-09-19T15:31:06;20.20;64.80
43995;DHT22;51687;52.160;5.298;2023-09-19T15:33:34;20.20;64.30
43995;DHT22;51687;52.160;5.298;2023-09-19T15:36:14;20.20;64.90
43995;DHT22;51687;52.160;5.298;2023-09-19T15:41:20;20.10;65.70
43995;DHT22;51687;52.160;5.298;2023-09-19T15:43:50;20.10;65.80
43995;DHT22;51687;52.160;5.298;2023-09-19T15:46:16;20.10;66.00
43995;DHT22;51687;52.160;5.298;2023-09-19T15:48:44;20.10;65.70
43995;DHT22;51687;52.160;5.298;2023-09-19T15:51:13;20.10;66.00
43995;DHT22;51687;52.160;5.298;2023-09-19T15:53:45;20.00;66.70
43995;DHT22;51687;52.160;5.298;2023-09-19T15:56:13;20.00;67.40
43995;DHT22;51687;52.160;5.298;2023-09-19T15:58:41;20.00;67.60
43995;DHT22;51687;52.160;5.298;2023-09-19T16:01:08;20.00;67.40
43995;DHT22;51687;52.160;5.298;2023-09-19T16:03:41;20.00;67.30
43995;DHT22;51687;52.160;5.298;2023-09-19T16:06:14;20.00;67.50
43995;DHT22;51687;52.160;5.298;2023-09-19T16:08:49;20.00;66.90
43995;DHT22;51687;52.160;5.298;2023-09-19T16:11:17;20.00;66.60
43995;DHT22;51687;52.160;5.298;2023-09-19T16:13:48;20.00;66.20
43995;DHT22;51687;52.160;5.298;2023-09-19T16:16:16;19.90;65.70
43995;DHT22;51687;52.160;5.298;2023-09-19T16:18:47;20.00;65.80
43995;DHT22;51687;52.160;5.298;2023-09-19T16:21:18;20.00;65.90
43995;DHT22;51687;52.160;5.298;2023-09-19T16:23:49;20.00;65.80
43995;DHT22;51687;52.160;5.298;2023-09-19T16:26:17;20.00;65.80
43995;DHT22;51687;52.160;5.298;2023-09-19T16:28:45;20.00;65.10
43995;DHT22;51687;52.160;5.298;2023-09-19T16:31:12;20.00;64.90
43995;DHT22;51687;52.160;5.298;2023-09-19T16:33:43;20.00;64.90
43995;DHT22;51687;52.160;5.298;2023-09-19T16:36:17;20.00;64.80
43995;DHT22;51687;52.160;5.298;2023-09-19T16:38:46;19.90;65.00
43995;DHT22;51687;52.160;5.298;2023-09-19T16:41:15;19.90;65.20
43995;DHT22;51687;52.160;5.298;2023-09-19T16:43:43;19.90;66.50
43995;DHT22;51687;52.160;5.298;2023-09-19T16:46:11;19.80;67.70
43995;DHT22;51687;52.160;5.298;2023-09-19T16:48:40;19.80;68.70
43995;DHT22;51687;52.160;5.298;2023-09-19T16:51:26;19.80;69.60
43995;DHT22;51687;52.160;5.298;2023-09-19T16:53:56;19.80;69.80
43995;DHT22;51687;52.160;5.298;2023-09-19T16:56:23;19.80;69.50
43995;DHT22;51687;52.160;5.298;2023-09-19T16:58:50;19.80;69.30
43995;DHT22;51687;52.160;5.298;2023-09-19T17:01:19;19.80;69.30
43995;DHT22;51687;52.160;5.298;2023-09-19T17:03:47;19.80;68.90
43995;DHT22;51687;52.160;5.298;2023-09-19T17:06:16;19.80;69.10
43995;DHT22;51687;52.160;5.298;2023-09-19T17:08:44;19.80;69.10
43995;DHT22;51687;52.160;5.298;2023-09-19T17:11:13;19.80;69.20
43995;DHT22;51687;52.160;5.298;2023-09-19T17:13:42;19.90;68.90
43995;DHT22;51687;52.160;5.298;2023-09-19T17:16:14;19.90;69.20
43995;DHT22;51687;52.160;5.298;2023-09-19T17:18:42;19.90;69.10
43995;DHT22;51687;52.160;5.298;2023-09-19T17:21:11;19.80;68.90
43995;DHT22;51687;52.160;5.298;2023-09-19T17:23:39;19.80;68.10
43995;DHT22;51687;52.160;5.298;2023-09-19T17:26:09;19.80;68.10
43995;DHT22;51687;52.160;5.298;2023-09-19T17:28:37;19.80;68.30
43995;DHT22;51687;52.160;5.298;2023-09-19T17:31:10;19.90;68.50
43995;DHT22;51687;52.160;5.298;2023-09-19T17:33:38;19.90;68.20
43995;DHT22;51687;52.160;5.298;2023-09-19T17:36:09;19.90;68.10
43995;DHT22;51687;52.160;5.298;2023-09-19T17:38:43;19.90;68.00
43995;DHT22;51687;52.160;5.298;2023-09-19T17:41:10;19.90;68.10
43995;DHT22;51687;52.160;5.298;2023-09-19T17:43:42;19.90;68.40
43995;DHT22;51687;52.160;5.298;2023-09-19T17:46:12;19.90;68.80
43995;DHT22;51687;52.160;5.298;2023-09-19T17:48:42;19.80;69.60
43995;DHT22;51687;52.160;5.298;2023-09-19T17:51:12;19.80;70.00
43995;DHT22;51687;52.160;5.298;2023-09-19T17:53:41;19.80;70.20
43995;DHT22;51687;52.160;5.298;2023-09-19T17:56:10;19.80;70.10
43995;DHT22;51687;52.160;5.298;2023-09-19T17:58:37;19.80;70.00
43995;DHT22;51687;52.160;5.298;2023-09-19T18:01:13;19.80;70.20
43995;DHT22;51687;52.160;5.298;2023-09-19T18:03:40;19.80;69.80
43995;DHT22;51687;52.160;5.298;2023-09-19T18:06:08;19.80;69.80
43995;DHT22;51687;52.160;5.298;2023-09-19T18:08:35;19.80;70.20
43995;DHT22;51687;52.160;5.298;2023-09-19T18:11:02;19.80;70.30
43995;DHT22;51687;52.160;5.298;2023-09-19T18:13:30;19.80;70.40
43995;DHT22;51687;52.160;5.298;2023-09-19T18:15:56;19.70;71.00
43995;DHT22;51687;52.160;5.298;2023-09-19T18:18:26;19.70;71.50
43995;DHT22;51687;52.160;5.298;2023-09-19T18:20:53;19.80;72.00
43995;DHT22;51687;52.160;5.298;2023-09-19T18:23:21;19.80;72.20
43995;DHT22;51687;52.160;5.298;2023-09-19T18:25:47;19.80;72.10
43995;DHT22;51687;52.160;5.298;2023-09-19T18:28:15;19.80;72.30
43995;DHT22;51687;52.160;5.298;2023-09-19T18:30:42;19.80;72.30
43995;DHT22;51687;52.160;5.298;2023-09-19T18:33:08;19.80;72.60
43995;DHT22;51687;52.160;5.298;2023-09-19T18:35:35;19.80;72.60
43995;DHT22;51687;52.160;5.298;2023-09-19T18:38:02;19.80;72.80
43995;DHT22;51687;52.160;5.298;2023-09-19T18:40:30;19.80;73.00
43995;DHT22;51687;52.160;5.298;2023-09-19T23:23:56;19.80;72.90
43995;DHT22;51687;52.160;5.298;2023-09-19T23:26:24;20.00;70.00
43995;DHT22;51687;52.160;5.298;2023-09-19T23:28:52;20.00;70.00
43995;DHT22;51687;52.160;5.298;2023-09-19T23:31:19;20.00;70.10
43995;DHT22;51687;52.160;5.298;2023-09-19T23:33:47;20.00;69.60
43995;DHT22;51687;52.160;5.298;2023-09-19T23:36:17;20.00;69.50
43995;DHT22;51687;52.160;5.298;2023-09-19T23:38:44;20.00;69.10
43995;DHT22;51687;52.160;5.298;2023-09-19T23:41:13;20.00;69.20
43995;DHT22;51687;52.160;5.298;2023-09-19T23:43:47;20.00;69.30
43995;DHT22;51687;52.160;5.298;2023-09-19T23:46:19;20.00;69.30
43995;DHT22;51687;52.160;5.298;2023-09-19T23:48:47;20.10;69.20
43995;DHT22;51687;52.160;5.298;2023-09-19T23:51:14;20.10;69.20
43995;DHT22;51687;52.160;5.298;2023-09-19T23:53:46;20.10;69.60
43995;DHT22;51687;52.160;5.298;2023-09-19T23:56:13;20.10;69.10
43995;DHT22;51687;52.160;5.298;2023-09-19T23:58:42;20.10;68.90
